createdAt,value
2023-05-05T00:01:07.072Z,95297.00
2023-05-05T00:03:51.870Z,95292.00
2023-05-05T00:06:35.205Z,95289.63
2023-05-05T00:09:18.622Z,95289.22
2023-05-05T00:12:01.845Z,95287.59
2023-05-05T00:14:45.043Z,95282.97
2023-05-05T00:17:28.378Z,95283.16
2023-05-05T00:20:14.300Z,95285.09
2023-05-05T00:22:57.564Z,95289.50
2023-05-05T00:25:41.643Z,95293.59
2023-05-05T00:28:24.987Z,95288.47
2023-05-05T00:31:08.866Z,95298.13
2023-05-05T00:33:52.284Z,95286.69
2023-05-05T00:36:37.080Z,95288.72
2023-05-05T00:39:20.459Z,95279.19
2023-05-05T00:42:03.736Z,95297.97
2023-05-05T00:44:47.235Z,95294.81
2023-05-05T00:47:30.878Z,95296.22
2023-05-05T00:50:22.880Z,95297.63
2023-05-05T00:53:08.508Z,95301.03
2023-05-05T00:55:52.212Z,95296.06
2023-05-05T00:58:36.114Z,95298.22
2023-05-05T01:01:19.780Z,95304.00
2023-05-05T01:04:03.013Z,95300.38
2023-05-05T01:06:55.560Z,95303.16
2023-05-05T01:09:57.967Z,95301.56
2023-05-05T01:12:55.251Z,95288.25
2023-05-05T01:15:45.496Z,95299.59
2023-05-05T01:18:36.316Z,95295.59
2023-05-05T01:21:24.574Z,95286.03
2023-05-05T01:24:24.762Z,95283.81
2023-05-05T01:27:35.386Z,95289.00
2023-05-05T01:30:29.951Z,95279.63
2023-05-05T01:33:19.959Z,95282.22
2023-05-05T01:36:08.968Z,95279.81
2023-05-05T01:38:58.709Z,95288.56
2023-05-05T01:41:45.548Z,95277.56
2023-05-05T01:44:31.392Z,95271.75
2023-05-05T01:47:17.995Z,95275.88
2023-05-05T01:50:04.171Z,95269.53
2023-05-05T01:52:48.907Z,95269.53
2023-05-05T01:55:33.757Z,95261.78
2023-05-05T01:58:18.576Z,95263.03
2023-05-05T02:01:03.331Z,95266.44
2023-05-05T02:03:48.420Z,95250.13
2023-05-05T02:06:34.953Z,95261.94
2023-05-05T02:09:18.693Z,95266.50
2023-05-05T02:12:03.359Z,95261.94
2023-05-05T02:14:48.572Z,95257.97
2023-05-05T02:17:32.768Z,95270.72
2023-05-05T02:20:17.457Z,95270.13
2023-05-05T02:23:05.949Z,95266.94
2023-05-05T02:25:53.784Z,95278.91
2023-05-05T02:28:42.797Z,95255.78
2023-05-05T02:31:29.123Z,95263.38
2023-05-05T02:34:14.776Z,95256.97
2023-05-05T02:37:02.095Z,95268.16
2023-05-05T02:39:58.907Z,95269.34
2023-05-05T02:42:44.645Z,95268.50
2023-05-05T02:45:30.407Z,95263.91
2023-05-05T02:48:14.176Z,95264.88
2023-05-05T02:51:04.739Z,95258.72
2023-05-05T02:53:48.629Z,95256.69
2023-05-05T02:56:42.104Z,95257.66
2023-05-05T02:59:36.782Z,95263.66
2023-05-05T03:02:29.407Z,95255.66
2023-05-05T03:05:18.931Z,95251.03
2023-05-05T03:08:05.372Z,95253.38
2023-05-05T03:11:01.351Z,95254.38
2023-05-05T03:13:51.557Z,95250.00
2023-05-05T03:16:37.526Z,95248.38
2023-05-05T03:19:22.533Z,95259.94
2023-05-05T03:22:08.459Z,95250.16
2023-05-05T03:24:51.925Z,95255.09
2023-05-05T03:27:37.734Z,95255.44
2023-05-05T03:30:22.581Z,95256.66
2023-05-05T03:33:06.156Z,95250.25
2023-05-05T03:35:49.447Z,95259.41
2023-05-05T03:38:33.610Z,95256.84
2023-05-05T03:41:16.953Z,95259.41
2023-05-05T03:44:00.078Z,95251.84
2023-05-05T03:46:44.702Z,95253.03
2023-05-05T03:49:27.953Z,95260.56
2023-05-05T03:52:15.088Z,95251.94
2023-05-05T03:55:00.198Z,95252.72
2023-05-05T03:57:43.371Z,95251.66
2023-05-05T04:00:29.108Z,95260.00
2023-05-05T04:03:13.918Z,95261.13
2023-05-05T04:05:58.530Z,95262.22
2023-05-05T04:08:41.686Z,95260.38
2023-05-05T04:11:26.413Z,95253.91
2023-05-05T04:14:10.632Z,95260.88
2023-05-05T04:16:54.681Z,95264.47
2023-05-05T04:19:39.288Z,95259.88
2023-05-05T04:22:25.001Z,95259.19
2023-05-05T04:25:09.166Z,95266.69
2023-05-05T04:27:52.739Z,95269.44
2023-05-05T04:30:38.853Z,95268.84
2023-05-05T04:33:22.127Z,95282.56
2023-05-05T04:36:07.347Z,95274.84
2023-05-05T04:38:50.867Z,95290.44
2023-05-05T04:41:34.180Z,95290.81
2023-05-05T04:44:17.335Z,95288.34
2023-05-05T04:47:02.028Z,95288.03
2023-05-05T04:49:46.228Z,95291.41
2023-05-05T04:52:30.974Z,95292.84
2023-05-05T04:55:14.492Z,95290.66
2023-05-05T04:57:57.710Z,95294.00
2023-05-05T05:00:40.993Z,95289.94
2023-05-05T05:03:24.500Z,95293.44
2023-05-05T05:06:07.966Z,95294.16
2023-05-05T05:08:54.990Z,95298.91
2023-05-05T05:11:40.684Z,95305.63
2023-05-05T05:14:24.058Z,95306.75
2023-05-05T05:17:07.288Z,95302.69
2023-05-05T05:19:50.438Z,95300.06
2023-05-05T05:22:34.933Z,95305.13
2023-05-05T05:25:19.628Z,95302.94
2023-05-05T05:28:10.182Z,95300.41
2023-05-05T05:30:54.324Z,95298.75
2023-05-05T05:33:37.602Z,95301.81
2023-05-05T05:36:20.837Z,95306.59
2023-05-05T05:39:05.472Z,95305.63
2023-05-05T05:41:50.245Z,95310.34
2023-05-05T05:44:33.744Z,95305.47
2023-05-05T05:47:18.307Z,95304.84
2023-05-05T05:50:01.613Z,95297.94
2023-05-05T05:52:44.777Z,95300.00
2023-05-05T05:55:28.307Z,95300.66
2023-05-05T05:58:12.948Z,95305.47
2023-05-05T06:00:56.474Z,95305.22
2023-05-05T06:03:39.776Z,95310.97
2023-05-05T06:06:23.854Z,95311.00
2023-05-05T06:09:06.964Z,95322.28
2023-05-05T06:11:50.173Z,95309.31
2023-05-05T06:14:34.794Z,95320.16
2023-05-05T06:17:17.945Z,95319.50
2023-05-05T06:20:01.135Z,95315.56
2023-05-05T06:22:44.608Z,95313.41
2023-05-05T06:25:28.291Z,95314.91
2023-05-05T06:28:11.531Z,95319.06
2023-05-05T06:30:56.672Z,95311.69
2023-05-05T06:33:39.838Z,95326.88
2023-05-05T06:36:23.156Z,95327.72
2023-05-05T06:39:09.434Z,95322.38
2023-05-05T06:41:52.576Z,95329.50
2023-05-05T06:44:37.655Z,95322.56
2023-05-05T06:47:22.355Z,95325.00
2023-05-05T06:50:06.309Z,95328.09
2023-05-05T06:52:49.766Z,95328.16
2023-05-05T06:55:35.052Z,95324.03
2023-05-05T06:58:20.703Z,95324.91
2023-05-05T07:01:04.187Z,95321.47
2023-05-05T07:03:50.172Z,95318.81
2023-05-05T07:06:35.966Z,95315.53
2023-05-05T07:09:21.550Z,95312.03
2023-05-05T07:12:05.483Z,95318.38
2023-05-05T07:14:48.591Z,95324.41
2023-05-05T07:17:31.853Z,95323.44
2023-05-05T07:20:17.715Z,95313.44
2023-05-05T07:23:01.480Z,95311.19
2023-05-05T07:25:45.133Z,95311.09
2023-05-05T07:28:36.091Z,95318.63
2023-05-05T07:31:19.788Z,95320.50
2023-05-05T07:34:03.015Z,95309.19
2023-05-05T07:36:47.802Z,95313.78
2023-05-05T07:39:31.319Z,95306.34
2023-05-05T07:42:14.807Z,95291.94
2023-05-05T07:44:58.358Z,95294.63
2023-05-05T07:47:41.764Z,95302.00
2023-05-05T07:50:25.219Z,95306.66
2023-05-05T07:53:14.386Z,95304.00
2023-05-05T07:55:57.854Z,95297.13
2023-05-05T07:58:41.035Z,95309.03
2023-05-05T08:01:24.296Z,95305.22
2023-05-05T08:04:08.105Z,95309.16
2023-05-05T08:06:51.272Z,95307.31
2023-05-05T08:09:36.033Z,95312.09
2023-05-05T08:12:21.871Z,95312.31
2023-05-05T08:15:05.487Z,95310.69
2023-05-05T08:17:49.384Z,95304.56
2023-05-05T08:20:32.896Z,95288.56
2023-05-05T08:23:16.284Z,95295.63
2023-05-05T08:26:00.862Z,95288.19
2023-05-05T08:28:44.249Z,95287.03
2023-05-05T08:31:27.791Z,95281.09
2023-05-05T08:34:11.322Z,95266.53
2023-05-05T08:36:54.731Z,95280.06
2023-05-05T08:39:38.115Z,95279.41
2023-05-05T08:42:33.221Z,95270.81
2023-05-05T08:45:20.013Z,95273.47
2023-05-05T08:48:05.981Z,95267.56
2023-05-05T08:50:59.536Z,95268.03
2023-05-05T08:53:50.207Z,95278.41
2023-05-05T08:56:36.364Z,95280.06
2023-05-05T08:59:25.301Z,95271.78
2023-05-05T09:02:10.092Z,95266.16
2023-05-05T09:04:53.563Z,95269.97
2023-05-05T09:07:37.716Z,95263.84
2023-05-05T09:10:21.581Z,95264.22
2023-05-05T09:13:10.113Z,95257.66
2023-05-05T09:15:54.800Z,95255.53
2023-05-05T09:18:41.124Z,95264.72
2023-05-05T09:21:26.136Z,95256.56
2023-05-05T09:24:11.050Z,95258.56
2023-05-05T09:26:56.937Z,95255.03
2023-05-05T09:29:41.731Z,95259.31
2023-05-05T09:32:30.574Z,95259.25
2023-05-05T09:35:14.437Z,95251.69
2023-05-05T09:37:58.450Z,95253.78
2023-05-05T09:40:47.729Z,95256.56
2023-05-05T09:43:30.816Z,95248.72
2023-05-05T09:46:14.391Z,95243.47
2023-05-05T09:49:12.790Z,95253.66
2023-05-05T09:51:56.264Z,95243.91
2023-05-05T09:54:39.802Z,95245.13
2023-05-05T09:57:30.722Z,95241.41
2023-05-05T10:00:15.750Z,95227.25
2023-05-05T10:03:04.124Z,95240.25
2023-05-05T10:05:54.156Z,95242.78
2023-05-05T10:08:37.598Z,95250.09
2023-05-05T10:11:21.015Z,95246.84
2023-05-05T10:14:08.110Z,95239.69
2023-05-05T10:16:52.882Z,95222.59
2023-05-05T10:19:37.203Z,95229.34
2023-05-05T10:22:24.509Z,95234.69
2023-05-05T10:25:12.688Z,95235.81
2023-05-05T10:28:02.997Z,95222.19
2023-05-05T10:30:50.454Z,95223.88
2023-05-05T10:33:43.175Z,95225.47
2023-05-05T10:36:28.087Z,95220.28
2023-05-05T10:39:13.186Z,95227.56
2023-05-05T10:41:56.549Z,95223.38
2023-05-05T10:44:42.386Z,95220.41
2023-05-05T10:47:28.310Z,95215.22
2023-05-05T10:50:26.408Z,95224.78
2023-05-05T10:53:18.556Z,95219.75
2023-05-05T10:56:07.655Z,95223.94
2023-05-05T10:58:59.746Z,95221.59
2023-05-05T11:01:44.353Z,95209.78
2023-05-05T11:04:28.204Z,95218.88
2023-05-05T11:07:26.039Z,95213.59
2023-05-05T11:10:11.227Z,95219.44
2023-05-05T11:13:21.581Z,95202.91
2023-05-05T11:16:07.066Z,95216.03
2023-05-05T11:18:50.488Z,95211.72
2023-05-05T11:22:03.150Z,95202.06
2023-05-05T11:24:47.391Z,95201.94
2023-05-05T11:28:02.988Z,95198.25
2023-05-05T11:31:19.260Z,95199.31
2023-05-05T11:34:29.201Z,95207.69
2023-05-05T11:37:12.754Z,95200.75
2023-05-05T11:40:11.674Z,95194.25
2023-05-05T11:43:05.971Z,95197.00
2023-05-05T11:45:49.197Z,95187.38
2023-05-05T11:48:36.678Z,95194.22
2023-05-05T11:51:22.409Z,95187.22
2023-05-05T11:54:20.023Z,95188.00
2023-05-05T11:57:05.687Z,95181.16
2023-05-05T11:59:54.408Z,95178.25
2023-05-05T12:02:37.775Z,95173.78
2023-05-05T12:05:22.241Z,95178.53
2023-05-05T12:08:08.986Z,95179.03
2023-05-05T12:10:52.306Z,95167.09
2023-05-05T12:13:36.132Z,95172.28
2023-05-05T12:16:20.177Z,95167.53
2023-05-05T12:19:07.708Z,95159.28
2023-05-05T12:21:51.050Z,95153.75
2023-05-05T12:24:38.483Z,95163.00
2023-05-05T12:27:22.072Z,95152.16
2023-05-05T12:30:16.970Z,95153.78
2023-05-05T12:33:04.450Z,95142.75
2023-05-05T12:35:58.139Z,95145.09
2023-05-05T12:38:42.018Z,95141.38
2023-05-05T12:42:15.119Z,95149.22
2023-05-05T12:44:59.741Z,95131.34
2023-05-05T12:47:44.166Z,95138.53
2023-05-05T12:50:33.800Z,95138.25
2023-05-05T12:53:23.040Z,95130.91
2023-05-05T12:56:06.488Z,95130.38
2023-05-05T12:58:50.083Z,95128.81
2023-05-05T13:01:36.021Z,95121.72
2023-05-05T13:04:20.180Z,95124.09
2023-05-05T13:07:14.021Z,95108.25
2023-05-05T13:10:10.682Z,95122.13
2023-05-05T13:12:56.756Z,95123.25
2023-05-05T13:15:40.315Z,95108.56
2023-05-05T13:18:25.214Z,95114.59
2023-05-05T13:21:08.601Z,95106.69
2023-05-05T13:23:52.175Z,95105.59
2023-05-05T13:26:35.891Z,95098.78
2023-05-05T13:29:19.798Z,95107.13
2023-05-05T13:32:03.049Z,95104.47
2023-05-05T13:34:47.803Z,95096.84
2023-05-05T13:37:31.049Z,95099.25
2023-05-05T13:40:15.392Z,95095.00
2023-05-05T13:42:58.893Z,95094.50
2023-05-05T13:46:02.789Z,95098.28
2023-05-05T13:48:56.387Z,95096.69
2023-05-05T13:51:41.881Z,95097.72
2023-05-05T13:54:25.228Z,95096.66
2023-05-05T13:57:09.013Z,95093.94
2023-05-05T13:59:52.270Z,95094.78
2023-05-05T14:02:36.116Z,95090.78
2023-05-05T14:05:19.573Z,95093.97
2023-05-05T14:08:04.609Z,95088.13
2023-05-05T14:10:48.629Z,95102.69
2023-05-05T14:13:34.173Z,95096.09
2023-05-05T14:16:17.614Z,95090.88
2023-05-05T14:19:01.039Z,95093.06
2023-05-05T14:21:44.329Z,95088.06
2023-05-05T14:24:29.088Z,95090.88
2023-05-05T14:27:12.550Z,95080.38
2023-05-05T14:30:03.870Z,95079.56
2023-05-05T14:32:47.429Z,95077.75
2023-05-05T14:35:31.643Z,95074.63
2023-05-05T14:38:21.030Z,95076.16
2023-05-05T14:41:06.901Z,95077.50
2023-05-05T14:43:53.195Z,95064.66
2023-05-05T14:46:36.564Z,95075.13
2023-05-05T14:49:19.772Z,95067.75
2023-05-05T14:52:03.086Z,95066.41
2023-05-05T14:54:50.012Z,95072.97
2023-05-05T14:57:34.882Z,95074.50
2023-05-05T15:00:18.648Z,95072.09
2023-05-05T15:03:02.009Z,95075.91
2023-05-05T15:05:47.546Z,95073.25
2023-05-05T15:08:31.053Z,95082.59
2023-05-05T15:11:15.118Z,95082.59
2023-05-05T15:13:59.999Z,95084.91
2023-05-05T15:16:43.376Z,95085.22
2023-05-05T15:19:26.712Z,95084.72
2023-05-05T15:22:09.881Z,95083.75
2023-05-05T15:24:53.356Z,95079.78
2023-05-05T15:27:38.179Z,95072.41
2023-05-05T15:30:25.397Z,95076.16
2023-05-05T15:33:08.582Z,95083.88
2023-05-05T15:35:51.810Z,95081.47
2023-05-05T15:38:35.263Z,95089.66
2023-05-05T15:42:12.700Z,95083.28
2023-05-05T15:44:56.119Z,95085.63
2023-05-05T15:47:42.050Z,95076.81
2023-05-05T15:50:25.364Z,95076.28
2023-05-05T15:53:08.628Z,95071.91
2023-05-05T15:55:52.069Z,95073.25
2023-05-05T15:58:36.751Z,95065.72
2023-05-05T16:01:20.394Z,95075.75
2023-05-05T16:04:05.512Z,95073.63
2023-05-05T16:06:56.161Z,95071.78
2023-05-05T16:09:39.386Z,95078.16
2023-05-05T16:12:22.987Z,95074.72
2023-05-05T16:15:07.433Z,95072.13
2023-05-05T16:17:51.638Z,95078.25
2023-05-05T16:20:36.280Z,95072.53
2023-05-05T16:23:19.761Z,95073.00
2023-05-05T16:26:04.170Z,95068.63
2023-05-05T16:28:47.338Z,95068.34
2023-05-05T16:31:34.004Z,95069.13
2023-05-05T16:34:17.589Z,95066.13
2023-05-05T16:37:02.647Z,95068.72
2023-05-05T16:39:48.111Z,95063.09
2023-05-05T16:42:31.218Z,95072.31
2023-05-05T16:45:17.572Z,95061.94
2023-05-05T16:48:02.290Z,95067.50
2023-05-05T16:50:45.882Z,95068.59
2023-05-05T16:53:30.734Z,95063.59
2023-05-05T16:56:14.023Z,95063.84
2023-05-05T16:58:57.213Z,95068.69
2023-05-05T17:01:40.497Z,95069.00
2023-05-05T17:04:23.693Z,95066.31
2023-05-05T17:07:07.326Z,95051.97
2023-05-05T17:09:52.108Z,95067.63
2023-05-05T17:12:38.958Z,95067.72
2023-05-05T17:15:22.452Z,95071.53
2023-05-05T17:18:06.537Z,95069.94
2023-05-05T17:20:51.448Z,95069.28
2023-05-05T17:23:42.038Z,95079.63
2023-05-05T17:26:27.854Z,95084.78
2023-05-05T17:29:15.507Z,95079.94
2023-05-05T17:31:58.775Z,95088.44
2023-05-05T17:34:42.606Z,95080.59
2023-05-05T17:37:26.565Z,95085.88
2023-05-05T17:40:10.450Z,95091.00
2023-05-05T17:42:55.261Z,95082.53
2023-05-05T17:45:38.853Z,95089.31
2023-05-05T17:48:22.232Z,95089.00
2023-05-05T17:51:06.014Z,95083.22
2023-05-05T17:53:51.050Z,95091.38
2023-05-05T17:56:37.192Z,95100.44
2023-05-05T17:59:22.121Z,95101.25
2023-05-05T18:02:05.942Z,95109.06
2023-05-05T18:04:49.297Z,95107.47
2023-05-05T18:07:33.709Z,95114.97
2023-05-05T18:10:16.856Z,95106.81
2023-05-05T18:13:00.046Z,95105.34
2023-05-05T18:15:45.022Z,95111.13
2023-05-05T18:18:28.553Z,95117.69
2023-05-05T18:21:12.383Z,95121.84
2023-05-05T18:24:01.694Z,95118.13
2023-05-05T18:26:52.662Z,95120.94
2023-05-05T18:29:37.525Z,95123.06
2023-05-05T18:32:22.409Z,95136.66
2023-05-05T18:35:06.525Z,95129.28
2023-05-05T18:37:50.349Z,95130.88
2023-05-05T18:40:33.658Z,95134.16
2023-05-05T18:43:16.881Z,95128.16
2023-05-05T18:46:00.333Z,95130.75
2023-05-05T18:48:44.959Z,95133.38
2023-05-05T18:51:28.809Z,95130.19
2023-05-05T18:54:12.080Z,95145.91
2023-05-05T18:56:55.246Z,95136.88
2023-05-05T18:59:38.661Z,95134.47
2023-05-05T19:02:24.093Z,95143.72
2023-05-05T19:05:10.240Z,95141.94
2023-05-05T19:07:55.408Z,95148.50
2023-05-05T19:10:39.173Z,95144.19
2023-05-05T19:13:23.717Z,95142.13
2023-05-05T19:16:07.690Z,95141.50
2023-05-05T19:18:51.285Z,95136.72
2023-05-05T19:21:36.003Z,95147.22
2023-05-05T19:24:19.234Z,95147.63
2023-05-05T19:27:04.023Z,95142.31
2023-05-05T19:29:49.356Z,95148.31
2023-05-05T19:32:33.182Z,95143.63
2023-05-05T19:35:18.892Z,95148.03
2023-05-05T19:38:03.434Z,95146.16
2023-05-05T19:40:46.845Z,95144.22
2023-05-05T19:43:30.277Z,95147.69
2023-05-05T19:46:14.032Z,95136.78
2023-05-05T19:48:57.510Z,95139.34
2023-05-05T19:51:43.361Z,95149.47
2023-05-05T19:54:29.196Z,95131.16
2023-05-05T19:57:12.755Z,95140.00
2023-05-05T19:59:56.185Z,95127.16
2023-05-05T20:02:39.820Z,95131.56
2023-05-05T20:05:23.487Z,95135.25
2023-05-05T20:08:07.341Z,95143.31
2023-05-05T20:10:53.350Z,95129.91
2023-05-05T20:13:38.287Z,95124.91
2023-05-05T20:16:24.900Z,95130.75
2023-05-05T20:19:08.108Z,95123.81
2023-05-05T20:21:51.252Z,95127.88
2023-05-05T20:24:34.671Z,95123.88
2023-05-05T20:27:19.432Z,95123.59
2023-05-05T20:30:03.178Z,95127.16
2023-05-05T20:32:46.614Z,95124.34
2023-05-05T20:35:29.753Z,95121.31
2023-05-05T20:38:14.977Z,95115.38
2023-05-05T20:40:58.133Z,95117.44
2023-05-05T20:43:43.080Z,95126.88
2023-05-05T20:46:26.436Z,95121.09
2023-05-05T20:49:09.560Z,95123.69
2023-05-05T20:51:52.964Z,95110.63
2023-05-05T20:54:39.023Z,95118.19
2023-05-05T20:57:22.199Z,95111.88
2023-05-05T21:00:09.026Z,95120.13
2023-05-05T21:02:57.091Z,95116.47
2023-05-05T21:05:40.984Z,95120.13
2023-05-05T21:08:24.072Z,95123.13
2023-05-05T21:11:10.160Z,95123.31
2023-05-05T21:13:53.891Z,95119.13
2023-05-05T21:16:38.432Z,95116.59
2023-05-05T21:19:21.642Z,95113.59
2023-05-05T21:22:05.408Z,95113.75
2023-05-05T21:24:48.672Z,95120.47
2023-05-05T21:27:32.318Z,95121.91
2023-05-05T21:30:16.618Z,95119.13
2023-05-05T21:33:01.864Z,95116.19
2023-05-05T21:35:45.114Z,95118.19
2023-05-05T21:38:28.314Z,95110.41
2023-05-05T21:41:11.500Z,95112.44
2023-05-05T21:43:54.987Z,95107.50
2023-05-05T21:46:38.729Z,95109.72
2023-05-05T21:49:23.509Z,95100.19
2023-05-05T21:52:06.781Z,95098.63
2023-05-05T21:54:50.208Z,95103.81
2023-05-05T21:57:34.138Z,95107.03
2023-05-05T22:00:17.874Z,95104.50
2023-05-05T22:03:01.002Z,95094.31
2023-05-05T22:05:46.280Z,95097.91
2023-05-05T22:08:29.440Z,95099.16
2023-05-05T22:11:12.504Z,95104.75
2023-05-05T22:13:56.511Z,95099.97
2023-05-05T22:16:40.062Z,95093.84
2023-05-05T22:19:23.728Z,95095.03
2023-05-05T22:22:08.743Z,95095.03
2023-05-05T22:24:51.907Z,95102.03
2023-05-05T22:27:35.534Z,95099.25
2023-05-05T22:30:18.817Z,95092.06
2023-05-05T22:33:02.272Z,95100.03
2023-05-05T22:35:46.358Z,95098.84
2023-05-05T22:38:31.002Z,95102.81
2023-05-05T22:41:14.252Z,95098.84
2023-05-05T22:43:58.148Z,95095.66
2023-05-05T22:46:42.209Z,95092.88
2023-05-05T22:49:25.834Z,95086.91
2023-05-05T22:52:09.223Z,95091.31
2023-05-05T22:54:53.844Z,95091.28
2023-05-05T22:57:37.301Z,95082.56
2023-05-05T23:00:20.904Z,95087.31
2023-05-05T23:03:04.169Z,95081.56
2023-05-05T23:05:47.362Z,95079.75
2023-05-05T23:08:30.553Z,95082.16
2023-05-05T23:11:15.797Z,95078.59
2023-05-05T23:13:59.176Z,95073.84
2023-05-05T23:16:42.943Z,95076.63
2023-05-05T23:19:26.470Z,95069.28
2023-05-05T23:22:10.231Z,95070.66
2023-05-05T23:24:53.452Z,95066.47
2023-05-05T23:27:39.846Z,95075.66
2023-05-05T23:30:23.171Z,95076.84
2023-05-05T23:33:06.307Z,95075.03
2023-05-05T23:35:49.851Z,95067.28
2023-05-05T23:38:33.002Z,95071.88
2023-05-05T23:41:16.433Z,95062.72
2023-05-05T23:44:01.020Z,95061.53
2023-05-05T23:46:44.298Z,95055.97
2023-05-05T23:49:27.422Z,95056.13
2023-05-05T23:52:10.822Z,95061.13
2023-05-05T23:54:54.014Z,95069.28
2023-05-05T23:57:37.638Z,95067.91
